Pine Knot, Kentucky
Current Conditions -  °F | °C
As of 6:56 PM on Wednesday 22 Oct 2014 (Local Time) from KEKQ Reporting Station
Broken Clouds Broken Clouds  
Wind Chill: 50°   Ceiling: 2700
Heat Index: 50°   Visibility: 10mi
Dew Point: 41°   Wind: 7mph
Humidity: 71%   Direction: 50°NE
Pressure: 30.27"   Gusts: NA
Location:  36.65°N, 84.44°W
Report Text: KEKQ 222256Z AUTO 05006KT 10SM BKN027 10/05 A3027 RMK AO2 T01000050 SLP259
Loading
Personal Weather Stations






























Interactive Weather Map
Tropical Storm Tracking
New forecast layout! Learn more

10-Day Weather Forecast

Advertisements
Track Severe Weather on mobile